createdAt,value
2022-12-09T00:01:24.198Z,16.10
2022-12-09T00:03:51.090Z,18.33
2022-12-09T00:06:26.280Z,19.27
2022-12-09T00:08:53.671Z,23.97
2022-12-09T00:11:23.732Z,16.50
2022-12-09T00:13:51.481Z,21.07
2022-12-09T00:16:18.663Z,19.97
2022-12-09T00:18:45.511Z,23.93
2022-12-09T00:21:18.462Z,20.20
2022-12-09T00:23:45.436Z,24.47
2022-12-09T00:26:12.890Z,21.23
2022-12-09T00:28:40.103Z,21.90
2022-12-09T00:31:08.024Z,21.87
2022-12-09T00:33:35.630Z,18.10
2022-12-09T00:36:11.320Z,21.97
2022-12-09T00:38:38.659Z,24.47
2022-12-09T00:41:05.591Z,14.53
2022-12-09T00:43:33.124Z,24.60
2022-12-09T00:45:59.957Z,18.10
2022-12-09T00:48:27.766Z,20.43
2022-12-09T00:50:54.484Z,16.53
2022-12-09T00:53:21.456Z,22.10
2022-12-09T00:55:48.462Z,19.07
2022-12-09T00:58:15.195Z,14.57
2022-12-09T01:00:41.954Z,17.40
2022-12-09T01:03:14.356Z,15.97
2022-12-09T01:05:41.816Z,19.13
2022-12-09T01:08:09.827Z,18.40
2022-12-09T01:10:38.903Z,14.17
2022-12-09T01:13:06.721Z,13.90
2022-12-09T01:15:34.253Z,18.77
2022-12-09T01:18:01.185Z,15.00
2022-12-09T01:20:28.112Z,13.90
2022-12-09T01:22:54.950Z,18.37
2022-12-09T01:25:21.955Z,19.40
2022-12-09T01:27:48.768Z,19.33
2022-12-09T01:30:15.948Z,25.13
2022-12-09T01:32:43.623Z,15.37
2022-12-09T01:35:10.678Z,23.00
2022-12-09T01:37:38.527Z,24.60
2022-12-09T01:40:08.197Z,22.37
2022-12-09T01:42:35.005Z,23.77
2022-12-09T01:45:20.073Z,19.80
2022-12-09T01:47:49.056Z,24.20
2022-12-09T01:50:16.910Z,21.90
2022-12-09T01:52:45.242Z,25.60
2022-12-09T01:55:12.904Z,22.13
2022-12-09T01:57:40.665Z,23.27
2022-12-09T02:00:08.350Z,25.43
2022-12-09T02:02:46.977Z,20.43
2022-12-09T02:05:18.898Z,18.63
2022-12-09T02:07:51.471Z,19.03
2022-12-09T02:10:19.323Z,23.53
2022-12-09T02:13:19.812Z,18.13
2022-12-09T02:15:55.848Z,20.30
2022-12-09T02:18:22.547Z,15.70
2022-12-09T02:20:57.227Z,16.87
2022-12-09T02:23:38.310Z,14.70
2022-12-09T02:26:22.853Z,16.20
2022-12-09T02:29:08.197Z,14.60
2022-12-09T02:31:44.050Z,13.93
2022-12-09T02:34:21.770Z,18.10
2022-12-09T02:37:22.078Z,16.03
2022-12-09T02:40:08.383Z,13.20
2022-12-09T02:42:40.008Z,18.33
2022-12-09T02:45:10.026Z,13.00
2022-12-09T02:47:45.467Z,16.70
2022-12-09T02:50:17.463Z,15.23
2022-12-09T02:52:46.711Z,14.33
2022-12-09T02:55:17.072Z,13.70
2022-12-09T02:57:44.144Z,13.13
2022-12-09T03:00:15.562Z,19.23
2022-12-09T03:02:51.647Z,19.63
2022-12-09T03:05:41.430Z,13.93
2022-12-09T03:08:29.922Z,18.33
2022-12-09T03:11:25.506Z,16.83
2022-12-09T03:14:00.079Z,17.77
2022-12-09T03:16:50.630Z,13.77
2022-12-09T03:19:30.104Z,16.90
2022-12-09T03:22:00.594Z,15.13
2022-12-09T03:24:39.564Z,22.13
2022-12-09T03:27:11.028Z,19.87
2022-12-09T03:29:42.715Z,17.60
2022-12-09T03:32:11.868Z,23.50
2022-12-09T03:34:43.733Z,79.00
2022-12-09T03:37:12.162Z,46.43
2022-12-09T03:39:41.111Z,68.87
2022-12-09T03:42:19.851Z,44.77
2022-12-09T03:44:56.058Z,49.23
2022-12-09T03:47:23.131Z,25.77
2022-12-09T03:49:50.654Z,35.87
2022-12-09T03:52:23.317Z,52.47
2022-12-09T03:54:56.043Z,56.10
2022-12-09T03:57:24.404Z,60.60
2022-12-09T04:00:01.700Z,31.93
2022-12-09T04:02:29.394Z,36.00
2022-12-09T04:04:56.320Z,69.23
2022-12-09T04:07:23.049Z,32.23
2022-12-09T04:09:49.938Z,34.57
2022-12-09T04:12:16.888Z,29.50
2022-12-09T04:14:44.244Z,25.93
2022-12-09T04:17:12.218Z,32.77
2022-12-09T04:19:38.885Z,21.73
2022-12-09T04:22:05.666Z,36.03
2022-12-09T04:24:32.457Z,37.07
2022-12-09T04:26:59.537Z,28.13
2022-12-09T04:29:26.300Z,34.00
2022-12-09T04:31:53.176Z,24.27
2022-12-09T04:34:20.008Z,32.33
2022-12-09T04:36:47.927Z,20.37
2022-12-09T04:39:15.096Z,25.67
2022-12-09T04:41:41.941Z,28.90
2022-12-09T04:44:09.174Z,23.90
2022-12-09T04:46:35.964Z,45.17
2022-12-09T04:49:03.254Z,50.97
2022-12-09T04:51:35.826Z,36.50
2022-12-09T04:54:06.492Z,23.73
2022-12-09T04:56:33.161Z,26.13
2022-12-09T04:58:59.978Z,21.73
2022-12-09T05:01:31.250Z,20.23
2022-12-09T05:03:59.657Z,26.93
2022-12-09T05:06:26.858Z,26.10
2022-12-09T05:08:54.826Z,24.80
2022-12-09T05:11:24.101Z,24.40
2022-12-09T05:13:53.228Z,21.17
2022-12-09T05:16:20.740Z,26.37
2022-12-09T05:18:49.121Z,19.80
2022-12-09T05:21:19.603Z,23.13
2022-12-09T05:23:47.277Z,22.00
2022-12-09T05:26:17.303Z,22.43
2022-12-09T05:28:44.391Z,25.20
2022-12-09T05:31:15.545Z,25.07
2022-12-09T05:33:43.301Z,27.33
2022-12-09T05:36:11.749Z,26.77
2022-12-09T05:38:39.841Z,30.50
2022-12-09T05:41:08.282Z,28.10
2022-12-09T05:43:36.875Z,28.90
2022-12-09T05:46:05.177Z,26.97
2022-12-09T05:48:32.771Z,47.13
2022-12-09T05:51:01.506Z,42.80
2022-12-09T05:53:30.392Z,43.87
2022-12-09T05:55:57.623Z,22.87
2022-12-09T05:58:24.666Z,26.43
2022-12-09T06:00:51.521Z,23.40
2022-12-09T06:03:18.721Z,22.93
2022-12-09T06:05:46.039Z,26.37
2022-12-09T06:08:12.931Z,23.10
2022-12-09T06:10:41.540Z,19.00
2022-12-09T06:13:08.989Z,21.63
2022-12-09T06:15:36.201Z,20.40
2022-12-09T06:18:03.377Z,25.23
2022-12-09T06:20:30.721Z,17.07
2022-12-09T06:22:57.712Z,23.77
2022-12-09T06:25:24.694Z,24.30
2022-12-09T06:27:53.254Z,23.20
2022-12-09T06:30:20.400Z,21.43
2022-12-09T06:32:47.565Z,22.27
2022-12-09T06:35:15.419Z,15.50
2022-12-09T06:37:43.000Z,13.47
2022-12-09T06:40:10.343Z,19.97
2022-12-09T06:42:37.629Z,17.60
2022-12-09T06:45:05.278Z,15.30
2022-12-09T06:47:33.116Z,23.80
2022-12-09T06:50:06.591Z,19.00
2022-12-09T06:52:34.620Z,25.10
2022-12-09T06:55:02.208Z,24.23
2022-12-09T06:57:29.405Z,22.43
2022-12-09T06:59:56.244Z,25.00
2022-12-09T07:02:23.106Z,20.67
2022-12-09T07:04:55.407Z,23.57
2022-12-09T07:07:23.322Z,26.17
2022-12-09T07:09:50.388Z,28.23
2022-12-09T07:12:17.720Z,28.60
2022-12-09T07:14:44.508Z,28.10
2022-12-09T07:17:19.321Z,32.27
2022-12-09T07:19:47.251Z,28.43
2022-12-09T07:22:14.672Z,28.30
2022-12-09T07:24:41.967Z,23.97
2022-12-09T07:27:15.796Z,30.87
2022-12-09T07:29:45.787Z,27.87
2022-12-09T07:32:13.124Z,24.27
2022-12-09T07:34:40.035Z,23.73
2022-12-09T07:37:07.276Z,21.97
2022-12-09T07:39:34.184Z,27.00
2022-12-09T07:42:00.981Z,22.00
2022-12-09T07:44:30.422Z,23.87
2022-12-09T07:46:57.761Z,24.97
2022-12-09T07:49:25.367Z,23.43
2022-12-09T07:51:52.766Z,22.57
2022-12-09T07:54:20.782Z,21.30
2022-12-09T07:56:48.670Z,23.73
2022-12-09T07:59:16.512Z,23.27
2022-12-09T08:01:44.582Z,19.07
2022-12-09T08:04:12.247Z,21.10
2022-12-09T08:06:40.247Z,19.53
2022-12-09T08:09:11.571Z,21.03
2022-12-09T08:11:39.394Z,21.33
2022-12-09T08:14:12.335Z,30.17
2022-12-09T08:16:43.536Z,40.50
2022-12-09T08:19:11.280Z,34.33
2022-12-09T08:21:39.029Z,34.47
2022-12-09T08:24:07.870Z,25.77
2022-12-09T08:26:35.953Z,24.70
2022-12-09T08:29:07.315Z,27.07
2022-12-09T08:31:40.333Z,24.33
2022-12-09T08:34:08.275Z,21.70
2022-12-09T08:36:36.968Z,24.30
2022-12-09T08:39:04.245Z,24.50
2022-12-09T08:41:36.276Z,27.20
2022-12-09T08:44:13.636Z,28.00
2022-12-09T08:46:42.887Z,23.67
2022-12-09T08:49:10.056Z,23.97
2022-12-09T08:51:37.479Z,26.00
2022-12-09T08:54:05.241Z,36.17
2022-12-09T08:56:32.817Z,37.47
2022-12-09T08:58:59.686Z,37.73
2022-12-09T09:01:32.685Z,33.27
2022-12-09T09:04:12.503Z,28.03
2022-12-09T09:06:41.534Z,22.50
2022-12-09T09:09:10.862Z,23.10
2022-12-09T09:11:38.604Z,21.97
2022-12-09T09:14:07.100Z,22.10
2022-12-09T09:16:35.549Z,25.80
2022-12-09T09:19:05.883Z,20.90
2022-12-09T09:21:34.729Z,24.27
2022-12-09T09:24:01.673Z,19.13
2022-12-09T09:26:30.270Z,22.70
2022-12-09T09:28:57.399Z,17.60
2022-12-09T09:31:26.026Z,22.77
2022-12-09T09:33:53.441Z,18.37
2022-12-09T09:36:23.790Z,20.27
2022-12-09T09:38:53.939Z,21.00
2022-12-09T09:41:39.362Z,23.73
2022-12-09T09:44:31.752Z,20.87
2022-12-09T09:47:00.448Z,21.00
2022-12-09T09:50:15.494Z,21.80
2022-12-09T09:52:42.929Z,17.67
2022-12-09T09:55:18.565Z,18.30
2022-12-09T09:58:11.139Z,20.10
2022-12-09T10:00:43.909Z,14.97
2022-12-09T10:03:32.518Z,15.50
2022-12-09T10:06:07.011Z,12.87
2022-12-09T10:08:44.709Z,12.90
2022-12-09T10:11:21.063Z,13.60
2022-12-09T10:13:54.973Z,11.97
2022-12-09T10:16:25.139Z,10.30
2022-12-09T10:19:08.130Z,12.90
2022-12-09T10:21:42.249Z,10.33
2022-12-09T10:24:18.218Z,12.40
2022-12-09T10:27:09.661Z,11.43
2022-12-09T10:29:45.784Z,10.93
2022-12-09T10:32:18.115Z,11.10
2022-12-09T10:34:47.712Z,9.40
2022-12-09T10:37:25.948Z,12.77
2022-12-09T10:40:00.901Z,11.97
2022-12-09T10:43:00.847Z,11.80
2022-12-09T10:45:45.658Z,10.27
2022-12-09T10:48:32.793Z,11.30
2022-12-09T10:51:04.078Z,12.27
2022-12-09T10:53:32.505Z,14.50
2022-12-09T10:56:01.997Z,11.30
2022-12-09T10:58:31.098Z,10.77
2022-12-09T11:01:05.469Z,15.40
2022-12-09T11:03:39.916Z,10.53
2022-12-09T11:06:20.482Z,10.77
2022-12-09T11:08:55.428Z,8.83
2022-12-09T11:11:49.864Z,12.13
2022-12-09T11:14:23.262Z,11.27
2022-12-09T11:16:55.667Z,8.80
2022-12-09T11:19:30.865Z,8.10
2022-12-09T11:22:24.286Z,9.77
2022-12-09T11:24:56.493Z,9.03
2022-12-09T11:27:34.711Z,8.93
2022-12-09T11:30:20.315Z,9.00
2022-12-09T11:33:15.372Z,14.40
2022-12-09T11:35:43.516Z,9.90
2022-12-09T11:38:17.301Z,12.40
2022-12-09T11:40:56.802Z,11.70
2022-12-09T11:43:33.172Z,12.10
2022-12-09T11:45:59.959Z,9.37
2022-12-09T11:48:37.503Z,10.87
2022-12-09T11:51:20.966Z,12.53
2022-12-09T11:53:48.131Z,7.90
2022-12-09T11:56:22.836Z,9.30
2022-12-09T11:59:11.701Z,13.10
2022-12-09T12:01:54.344Z,10.30
2022-12-09T12:04:39.352Z,10.67
2022-12-09T12:07:14.387Z,13.07
2022-12-09T12:09:53.225Z,12.27
2022-12-09T12:12:29.239Z,9.07
2022-12-09T12:15:01.875Z,10.93
2022-12-09T12:17:43.447Z,10.60
2022-12-09T12:20:13.173Z,11.87
2022-12-09T12:23:13.847Z,12.60
2022-12-09T12:26:01.039Z,10.43
2022-12-09T12:29:07.097Z,12.70
2022-12-09T12:31:51.353Z,12.30
2022-12-09T12:34:42.402Z,10.03
2022-12-09T12:37:15.064Z,11.13
2022-12-09T12:40:03.785Z,11.60
2022-12-09T12:43:08.744Z,9.47
2022-12-09T12:46:08.261Z,8.77
2022-12-09T12:48:51.043Z,11.30
2022-12-09T12:51:25.861Z,10.53
2022-12-09T12:54:17.423Z,12.57
2022-12-09T12:57:17.521Z,11.90
2022-12-09T12:59:56.736Z,11.20
2022-12-09T13:02:23.460Z,17.30
2022-12-09T13:04:57.402Z,10.37
2022-12-09T13:07:35.664Z,12.97
2022-12-09T13:10:25.110Z,14.23
2022-12-09T13:12:56.535Z,16.60
2022-12-09T13:15:36.971Z,16.63
2022-12-09T13:18:26.780Z,16.43
2022-12-09T13:20:56.394Z,15.83
2022-12-09T13:23:41.324Z,12.40
2022-12-09T13:26:33.972Z,13.37
2022-12-09T13:29:31.026Z,11.37
2022-12-09T13:32:16.344Z,14.00
2022-12-09T13:34:54.341Z,12.10
2022-12-09T13:37:36.274Z,10.80
2022-12-09T13:40:23.909Z,10.00
2022-12-09T13:42:57.519Z,12.03
2022-12-09T13:45:29.143Z,11.63
2022-12-09T13:47:58.493Z,14.73
2022-12-09T13:50:34.130Z,12.00
2022-12-09T13:53:04.703Z,14.47
2022-12-09T13:55:36.727Z,12.73
2022-12-09T13:58:33.901Z,13.53
2022-12-09T14:01:06.408Z,11.17
2022-12-09T14:03:37.560Z,12.90
2022-12-09T14:06:16.909Z,14.80
2022-12-09T14:08:49.309Z,14.57
2022-12-09T14:11:37.698Z,15.40
2022-12-09T14:14:22.877Z,13.53
2022-12-09T14:16:57.737Z,17.43
2022-12-09T14:19:24.280Z,15.30
2022-12-09T14:22:19.743Z,13.20
2022-12-09T14:24:57.645Z,11.20
2022-12-09T14:27:27.252Z,13.97
2022-12-09T14:29:53.817Z,12.77
2022-12-09T14:32:33.677Z,14.10
2022-12-09T14:35:06.795Z,15.07
2022-12-09T14:38:03.612Z,17.30
2022-12-09T14:40:35.949Z,15.07
2022-12-09T14:43:05.560Z,17.00
2022-12-09T14:45:52.182Z,19.10
2022-12-09T14:48:26.100Z,17.90
2022-12-09T14:51:16.980Z,12.37
2022-12-09T14:53:48.276Z,13.20
2022-12-09T14:56:18.425Z,15.80
2022-12-09T14:58:50.462Z,12.60
2022-12-09T15:01:21.029Z,15.40
2022-12-09T15:03:59.228Z,18.43
2022-12-09T15:06:27.015Z,13.63
2022-12-09T15:08:56.350Z,14.90
2022-12-09T15:11:35.910Z,15.17
2022-12-09T15:14:26.256Z,13.07
2022-12-09T15:16:54.689Z,14.07
2022-12-09T15:19:59.118Z,15.50
2022-12-09T15:22:22.401Z,16.10
2022-12-09T15:24:51.123Z,18.17
2022-12-09T15:27:20.894Z,12.77
2022-12-09T15:29:47.562Z,14.70
2022-12-09T15:32:29.948Z,15.23
2022-12-09T15:35:15.746Z,16.37
2022-12-09T15:37:42.835Z,16.60
2022-12-09T15:40:15.556Z,15.70
2022-12-09T15:42:45.977Z,17.90
2022-12-09T15:45:26.329Z,16.43
2022-12-09T15:48:09.665Z,15.90
2022-12-09T15:50:49.836Z,16.37
2022-12-09T15:53:24.809Z,15.50
2022-12-09T15:56:03.410Z,12.77
2022-12-09T15:58:38.740Z,13.93
2022-12-09T16:01:05.782Z,12.73
2022-12-09T16:03:34.870Z,13.33
2022-12-09T16:06:06.302Z,13.23
2022-12-09T16:08:37.499Z,11.63
2022-12-09T16:11:04.585Z,14.63
2022-12-09T16:13:31.681Z,18.03
2022-12-09T16:16:00.750Z,15.77
2022-12-09T16:18:49.707Z,14.60
2022-12-09T16:21:16.278Z,15.33
2022-12-09T16:23:45.241Z,14.60
2022-12-09T16:26:21.052Z,14.10
2022-12-09T16:28:55.536Z,14.43
2022-12-09T16:31:22.596Z,12.07
2022-12-09T16:33:50.956Z,14.17
2022-12-09T16:36:21.357Z,15.23
2022-12-09T16:39:06.814Z,15.50
2022-12-09T16:41:51.378Z,16.13
2022-12-09T16:44:29.738Z,14.23
2022-12-09T16:47:10.688Z,20.30
2022-12-09T16:49:38.486Z,18.23
2022-12-09T16:52:05.309Z,16.90
2022-12-09T16:54:32.397Z,14.83
2022-12-09T16:56:59.394Z,9.63
2022-12-09T16:59:31.910Z,13.73
2022-12-09T17:02:04.794Z,13.60
2022-12-09T17:04:31.539Z,13.50
2022-12-09T17:06:58.194Z,15.70
2022-12-09T17:09:24.783Z,12.40
2022-12-09T17:11:51.374Z,15.10
2022-12-09T17:14:18.086Z,12.33
2022-12-09T17:16:44.809Z,14.00
2022-12-09T17:19:12.458Z,15.60
2022-12-09T17:21:39.018Z,11.30
2022-12-09T17:24:06.076Z,13.93
2022-12-09T17:26:32.700Z,13.60
2022-12-09T17:29:01.817Z,16.60
2022-12-09T17:31:29.661Z,17.53
2022-12-09T17:33:57.061Z,15.50
2022-12-09T17:36:24.095Z,14.40
2022-12-09T17:38:50.728Z,17.33
2022-12-09T17:41:20.583Z,17.10
2022-12-09T17:43:47.482Z,14.53
2022-12-09T17:46:14.459Z,16.60
2022-12-09T17:48:41.936Z,14.37
2022-12-09T17:51:14.199Z,20.70
2022-12-09T17:53:42.634Z,15.40
2022-12-09T17:56:11.784Z,18.83
2022-12-09T17:58:39.648Z,20.57
2022-12-09T18:01:16.653Z,14.67
2022-12-09T18:04:02.919Z,15.03
2022-12-09T18:06:34.075Z,19.27
2022-12-09T18:09:01.949Z,15.80
2022-12-09T18:11:28.595Z,13.13
2022-12-09T18:13:55.200Z,17.43
2022-12-09T18:16:21.990Z,12.47
2022-12-09T18:18:48.970Z,14.03
2022-12-09T18:21:16.538Z,17.43
2022-12-09T18:23:43.489Z,17.17
2022-12-09T18:26:12.769Z,19.60
2022-12-09T18:28:39.884Z,19.00
2022-12-09T18:31:11.918Z,20.90
2022-12-09T18:33:39.224Z,19.73
2022-12-09T18:36:13.170Z,14.43
2022-12-09T18:38:40.759Z,14.83
2022-12-09T18:41:34.096Z,14.80
2022-12-09T18:44:03.174Z,15.53
2022-12-09T18:46:33.214Z,13.83
2022-12-09T18:49:04.855Z,17.30
2022-12-09T18:51:32.769Z,16.43
2022-12-09T18:54:00.919Z,35.43
2022-12-09T18:56:27.667Z,25.87
2022-12-09T18:59:06.558Z,33.93
2022-12-09T19:01:39.031Z,28.53
2022-12-09T19:04:07.471Z,65.73
2022-12-09T19:06:36.841Z,26.93
2022-12-09T19:09:07.361Z,61.37
2022-12-09T19:11:36.844Z,41.33
2022-12-09T19:14:04.997Z,19.00
2022-12-09T19:16:32.308Z,19.77
2022-12-09T19:19:05.339Z,27.30
2022-12-09T19:21:35.591Z,19.57
2022-12-09T19:24:02.236Z,20.57
2022-12-09T19:26:31.655Z,34.57
2022-12-09T19:29:00.835Z,35.03
2022-12-09T19:31:30.530Z,22.43
2022-12-09T19:34:02.872Z,25.90
2022-12-09T19:36:31.136Z,29.67
2022-12-09T19:38:58.059Z,42.27
2022-12-09T19:41:24.705Z,57.73
2022-12-09T19:43:55.810Z,31.10
2022-12-09T19:46:22.738Z,23.33
2022-12-09T19:48:49.684Z,26.37
2022-12-09T19:51:18.610Z,24.50
2022-12-09T19:53:46.435Z,27.33
2022-12-09T19:56:15.382Z,20.03
2022-12-09T19:58:42.946Z,21.10
2022-12-09T20:01:18.630Z,28.07
2022-12-09T20:03:47.896Z,23.00
2022-12-09T20:06:18.130Z,24.20
2022-12-09T20:08:45.046Z,23.73
2022-12-09T20:11:14.485Z,28.70
2022-12-09T20:13:41.988Z,23.00
2022-12-09T20:16:12.176Z,28.37
2022-12-09T20:18:39.263Z,21.90
2022-12-09T20:21:08.734Z,23.77
2022-12-09T20:23:36.743Z,21.43
2022-12-09T20:26:09.745Z,23.70
2022-12-09T20:28:40.652Z,26.83
2022-12-09T20:31:10.719Z,26.23
2022-12-09T20:33:37.743Z,22.83
2022-12-09T20:36:20.536Z,22.70
2022-12-09T20:39:01.849Z,22.17
2022-12-09T20:41:28.862Z,21.87
2022-12-09T20:43:59.547Z,25.60
2022-12-09T20:46:29.301Z,19.50
2022-12-09T20:48:57.874Z,23.73
2022-12-09T20:51:27.453Z,25.47
2022-12-09T20:53:54.793Z,29.77
2022-12-09T20:56:23.629Z,23.50
2022-12-09T20:58:51.594Z,27.60
2022-12-09T21:01:21.862Z,27.57
2022-12-09T21:03:49.796Z,20.33
2022-12-09T21:06:18.911Z,24.47
2022-12-09T21:08:46.061Z,23.53
2022-12-09T21:11:16.534Z,22.73
2022-12-09T21:13:48.518Z,20.47
2022-12-09T21:16:20.203Z,22.73
2022-12-09T21:18:50.670Z,28.10
2022-12-09T21:21:18.831Z,33.90
2022-12-09T21:23:45.847Z,35.87
2022-12-09T21:26:18.124Z,30.90
2022-12-09T21:28:46.669Z,32.17
2022-12-09T21:31:16.644Z,26.57
2022-12-09T21:33:45.453Z,26.10
2022-12-09T21:36:15.213Z,17.90
2022-12-09T21:38:42.636Z,21.33
2022-12-09T21:41:12.100Z,25.47
2022-12-09T21:43:39.638Z,21.00
2022-12-09T21:46:12.464Z,21.60
2022-12-09T21:48:40.393Z,26.40
2022-12-09T21:51:07.820Z,22.73
2022-12-09T21:53:34.943Z,19.10
2022-12-09T21:56:03.741Z,20.57
2022-12-09T21:58:31.855Z,24.17
2022-12-09T22:00:59.799Z,20.53
2022-12-09T22:03:29.388Z,25.13
2022-12-09T22:05:59.685Z,24.33
2022-12-09T22:08:27.190Z,22.20
2022-12-09T22:10:54.021Z,22.30
2022-12-09T22:13:21.994Z,28.27
2022-12-09T22:15:48.698Z,23.57
2022-12-09T22:18:15.377Z,19.90
2022-12-09T22:21:15.957Z,22.67
2022-12-09T22:23:32.011Z,23.30
2022-12-09T22:25:59.044Z,31.27
2022-12-09T22:28:25.973Z,25.67
2022-12-09T22:30:52.602Z,27.90
2022-12-09T22:33:19.187Z,25.63
2022-12-09T22:35:46.774Z,22.33
2022-12-09T22:38:14.811Z,24.67
2022-12-09T22:40:41.998Z,21.40
2022-12-09T22:43:08.628Z,28.40
2022-12-09T22:45:36.429Z,25.90
2022-12-09T22:48:03.968Z,25.77
2022-12-09T22:50:30.884Z,24.70
2022-12-09T22:52:57.461Z,28.70
2022-12-09T22:55:24.204Z,32.70
2022-12-09T22:57:51.873Z,27.50
2022-12-09T23:00:18.733Z,23.63
2022-12-09T23:02:45.637Z,24.87
2022-12-09T23:05:12.307Z,26.37
2022-12-09T23:07:38.991Z,25.57
2022-12-09T23:10:06.517Z,25.17
2022-12-09T23:12:33.485Z,28.37
2022-12-09T23:15:00.078Z,28.73
2022-12-09T23:17:26.973Z,26.17
2022-12-09T23:19:53.635Z,28.33
2022-12-09T23:22:20.301Z,27.83
2022-12-09T23:24:47.867Z,28.53
2022-12-09T23:27:14.487Z,29.27
2022-12-09T23:29:41.071Z,28.50
2022-12-09T23:32:07.757Z,21.73
2022-12-09T23:34:34.382Z,19.97
2022-12-09T23:37:01.048Z,21.47
2022-12-09T23:39:27.699Z,21.60
2022-12-09T23:41:54.620Z,25.10
2022-12-09T23:44:21.252Z,24.57
2022-12-09T23:46:48.056Z,24.43
2022-12-09T23:49:14.765Z,26.37
2022-12-09T23:51:43.825Z,26.77
2022-12-09T23:54:12.176Z,28.70
2022-12-09T23:56:40.469Z,28.53
2022-12-09T23:59:09.777Z,30.57
